Time;durP1;ratioP1;P1;durP2;ratioP2;P2;SDS_P1;SDS_P2;PMS_P1;PMS_P2;Temp;Humidity;BMP_temperature;BMP_pressure;BME280_temperature;BME280_humidity;BME280_pressure;Samples;Min_cycle;Max_cycle;Signal;HPM_P1;HPM_P2
2022/04/14 00:00:23;;;;;;;13.97;3.30;;;10.70;99.90;11.60;94182.00;;;;7389686;19;20133;-78
2022/04/14 00:02:51;;;;;;;15.97;3.70;;;10.70;99.90;11.90;94160.00;;;;7391915;19;20597;-77
2022/04/14 00:05:19;;;;;;;7.15;3.28;;;10.80;99.90;12.20;94157.00;;;;7389763;19;20125;-78
2022/04/14 00:07:53;;;;;;;10.60;3.27;;;11.00;99.90;12.00;94165.00;;;;7389369;19;20141;-77
2022/04/14 00:10:20;;;;;;;10.37;3.40;;;11.10;99.90;11.80;94159.00;;;;7389335;19;20632;-76
2022/04/14 00:12:48;;;;;;;10.23;3.53;;;11.10;99.90;12.30;94168.00;;;;7389287;19;20158;-78
2022/04/14 00:15:22;;;;;;;11.70;3.53;;;11.30;67.60;12.40;94168.00;;;;7390283;19;20136;-78
2022/04/14 00:17:58;;;;;;;8.90;3.78;;;11.40;53.70;12.30;94140.00;;;;7388164;19;20148;-77
2022/04/14 00:20:32;;;;;;;7.72;3.10;;;11.40;58.30;12.20;94165.00;;;;7389324;19;20141;-76
2022/04/14 00:22:59;;;;;;;8.95;3.10;;;11.40;68.90;12.10;94145.00;;;;7390550;19;20131;-75
2022/04/14 00:25:27;;;;;;;12.32;3.63;;;11.40;99.90;12.20;94150.00;;;;7389339;19;20113;-76
2022/04/14 00:28:01;;;;;;;10.65;3.47;;;11.40;99.40;12.20;94154.00;;;;7389909;19;20144;-78
2022/04/14 00:30:28;;;;;;;14.02;3.83;;;11.40;99.90;12.10;94128.00;;;;7388040;19;20152;-76
2022/04/14 00:32:55;;;;;;;9.50;3.85;;;11.40;99.90;12.20;94162.00;;;;7388819;19;20636;-78
2022/04/14 00:35:30;;;;;;;7.38;3.42;;;11.40;99.90;12.00;94160.00;;;;7396475;19;20152;-78
2022/04/14 00:37:57;;;;;;;14.13;4.00;;;11.40;99.90;12.20;94165.00;;;;7398578;19;20131;-77
2022/04/14 00:40:24;;;;;;;10.95;4.18;;;11.40;99.90;12.10;94149.00;;;;7392591;19;20137;-79
2022/04/14 00:42:58;;;;;;;7.83;3.67;;;11.40;99.90;12.00;94163.00;;;;7394400;19;20203;-76
2022/04/14 00:45:26;;;;;;;9.32;3.33;;;11.30;99.90;11.70;94162.00;;;;7396763;19;20125;-78
2022/04/14 00:47:54;;;;;;;8.57;3.67;;;11.10;99.90;11.60;94142.00;;;;7393045;19;20602;-76
2022/04/14 00:50:28;;;;;;;10.63;3.50;;;11.00;99.90;11.40;94147.00;;;;7396554;19;20129;-77
2022/04/14 00:52:55;;;;;;;10.32;3.45;;;10.90;99.90;11.40;94151.00;;;;7395742;19;20525;-77
2022/04/14 00:55:22;;;;;;;12.23;4.27;;;10.80;99.90;11.40;94144.00;;;;7395397;19;20616;-76
2022/04/14 00:57:55;;;;;;;10.27;3.55;;;10.70;99.90;11.20;94170.00;;;;7398407;19;20580;-76
2022/04/14 01:00:22;;;;;;;11.57;3.85;;;10.70;99.90;11.30;94151.00;;;;7392694;19;20222;-77
2022/04/14 01:02:50;;;;;;;10.00;4.25;;;10.60;99.90;11.20;94162.00;;;;7395566;19;20148;-76
2022/04/14 01:05:26;;;;;;;9.07;4.30;;;10.50;1.00;11.20;94146.00;;;;7394882;19;20142;-76
2022/04/14 01:07:59;;;;;;;7.87;3.87;;;10.50;1.00;11.30;94152.00;;;;7397603;19;20449;-76
2022/04/14 01:10:35;;;;;;;13.90;4.33;;;10.50;1.00;11.40;94157.00;;;;7395339;19;20156;-78
2022/04/14 01:13:02;;;;;;;7.97;3.70;;;10.60;1.00;11.50;94163.00;;;;7397567;19;20156;-78
2022/04/14 01:15:31;;;;;;;11.63;4.10;;;10.60;1.00;11.60;94158.00;;;;7395964;19;20125;-77
2022/04/14 01:18:12;;;;;;;12.00;5.00;;;10.70;1.00;11.50;94190.00;;;;7392519;19;20212;-76
2022/04/14 01:20:41;;;;;;;9.70;4.60;;;10.80;1.00;11.70;94164.00;;;;7392185;19;20153;-76
2022/04/14 01:23:23;;;;;;;12.70;5.20;;;10.90;1.00;11.70;94188.00;;;;7397128;19;20124;-76
2022/04/14 01:25:50;;;;;;;8.67;4.93;;;10.90;1.00;11.60;94157.00;;;;7396131;19;20476;-76
2022/04/14 01:28:24;;;;;;;13.48;5.50;;;10.90;1.00;11.80;94163.00;;;;7393523;19;20135;-76
2022/04/14 01:30:51;;;;;;;11.45;5.15;;;11.00;1.00;11.80;94158.00;;;;7394116;19;20608;-77
2022/04/14 01:33:18;;;;;;;10.10;5.20;;;11.00;1.00;11.60;94185.00;;;;7395027;19;20196;-77
2022/04/14 01:35:55;;;;;;;8.70;5.70;;;11.00;1.00;11.40;94168.00;;;;7395881;19;20153;-76
2022/04/14 01:38:22;;;;;;;11.13;4.80;;;10.90;1.00;11.50;94185.00;;;;7393240;19;20125;-76
2022/04/14 01:40:49;;;;;;;13.82;4.88;;;10.90;1.00;11.50;94188.00;;;;7395097;19;20189;-76
2022/04/14 01:43:23;;;;;;;12.07;4.40;;;10.80;1.00;11.40;94193.00;;;;7394415;19;20200;-76
2022/04/14 01:45:50;;;;;;;8.27;4.73;;;10.80;1.00;11.20;94185.00;;;;7392303;19;20125;-77
2022/04/14 01:48:18;;;;;;;12.32;5.43;;;10.70;1.00;11.20;94189.00;;;;7393513;19;20125;-78
2022/04/14 01:50:51;;;;;;;18.58;5.28;;;10.60;1.00;11.10;94148.00;;;;7395083;19;20128;-78
2022/04/14 01:53:18;;;;;;;12.77;6.27;;;10.50;99.90;11.40;94195.00;;;;7391614;19;20202;-78
2022/04/14 01:55:45;;;;;;;16.27;7.37;;;10.60;99.90;11.40;94193.00;;;;7393449;19;20141;-78
2022/04/14 01:58:19;;;;;;;12.43;6.43;;;10.60;99.90;11.40;94198.00;;;;7393162;19;20128;-78
2022/04/14 02:00:46;;;;;;;13.43;7.57;;;10.70;99.90;11.40;94170.00;;;;7390106;19;20466;-78
2022/04/14 02:03:14;;;;;;;17.00;6.90;;;10.70;99.90;11.40;94189.00;;;;7393593;19;20160;-78
2022/04/14 02:05:47;;;;;;;10.98;6.32;;;10.70;99.90;11.30;94213.00;;;;7393205;19;20498;-78
2022/04/14 02:08:14;;;;;;;24.63;8.90;;;10.70;99.90;11.30;94214.00;;;;7393219;19;20133;-78
2022/04/14 02:10:42;;;;;;;14.90;7.70;;;10.70;99.90;11.30;94205.00;;;;7390996;19;20212;-78
2022/04/14 02:13:15;;;;;;;15.03;8.30;;;10.70;99.90;11.20;94208.00;;;;7392810;19;20196;-78
2022/04/14 02:15:43;;;;;;;18.70;8.87;;;10.60;99.90;11.20;94187.00;;;;7393345;19;20624;-78
2022/04/14 02:18:16;;;;;;;14.67;8.97;;;10.60;1.00;11.10;94160.00;;;;7390296;19;20644;-79
2022/04/14 02:20:51;;;;;;;14.10;9.27;;;10.60;1.00;10.90;94216.00;;;;7390250;19;20580;-77
2022/04/14 02:23:18;;;;;;;19.70;10.53;;;10.50;1.00;11.00;94205.00;;;;7392154;19;20625;-77
2022/04/14 02:25:46;;;;;;;22.07;10.00;;;10.50;1.00;11.00;94217.00;;;;7392843;19;20149;-76
2022/04/14 02:28:20;;;;;;;17.93;10.60;;;10.50;1.00;10.90;94224.00;;;;7393278;19;20600;-77
2022/04/14 02:30:48;;;;;;;18.20;11.47;;;10.40;45.20;10.80;94215.00;;;;7393560;19;20138;-78
2022/04/14 02:33:16;;;;;;;18.27;11.17;;;10.40;99.90;10.90;94226.00;;;;7392325;19;20143;-79
2022/04/14 02:35:50;;;;;;;22.30;12.83;;;10.40;99.90;11.00;94218.00;;;;7392260;19;20610;-78
2022/04/14 02:38:17;;;;;;;25.90;12.20;;;10.40;99.90;11.00;94222.00;;;;7394197;19;20125;-78
2022/04/14 02:40:44;;;;;;;24.53;12.93;;;10.30;99.90;11.00;94203.00;;;;7390033;19;20125;-77
2022/04/14 02:43:17;;;;;;;22.70;14.20;;;10.40;1.00;11.00;94215.00;;;;7391856;19;20128;-77
2022/04/14 02:45:44;;;;;;;20.10;14.35;;;10.40;1.00;11.00;94231.00;;;;7392087;19;20613;-76
2022/04/14 02:48:12;;;;;;;25.75;16.75;;;10.40;1.00;11.00;94201.00;;;;7394292;19;20113;-77
2022/04/14 02:50:46;;;;;;;21.77;16.67;;;10.40;1.00;11.10;94214.00;;;;7393255;19;20445;-77
2022/04/14 02:53:13;;;;;;;39.60;22.17;;;10.50;1.00;11.10;94238.00;;;;7389680;19;20136;-77
2022/04/14 02:55:41;;;;;;;36.70;22.50;;;10.50;1.00;11.10;94194.00;;;;7392634;19;20635;-77
2022/04/14 02:58:15;;;;;;;41.00;24.80;;;10.50;1.00;11.10;94226.00;;;;7392058;19;20132;-77
2022/04/14 03:00:42;;;;;;;38.37;25.23;;;10.60;40.80;11.20;94232.00;;;;7390822;19;20128;-77
2022/04/14 03:03:10;;;;;;;38.37;27.03;;;10.60;64.20;11.30;94212.00;;;;7388646;19;20632;-77
2022/04/14 03:05:43;;;;;;;41.63;27.77;;;10.60;99.90;11.20;94214.00;;;;7390624;19;20668;-77
2022/04/14 03:08:11;;;;;;;39.23;28.20;;;10.60;99.90;11.20;94240.00;;;;7391925;19;20599;-76
2022/04/14 03:10:38;;;;;;;40.10;28.55;;;10.60;99.90;11.20;94227.00;;;;7390517;19;20478;-76
2022/04/14 03:13:11;;;;;;;38.35;28.25;;;10.60;99.90;11.10;94201.00;;;;7390684;19;20144;-76
2022/04/14 03:15:39;;;;;;;38.83;28.53;;;10.60;99.90;11.20;94245.00;;;;7391969;19;20729;-76
2022/04/14 03:18:06;;;;;;;36.60;28.67;;;10.60;99.90;11.20;94244.00;;;;7390116;19;20556;-76
2022/04/14 03:20:46;;;;;;;43.72;28.85;;;10.50;99.90;10.90;94239.00;;;;7389864;19;20121;-77
2022/04/14 03:23:13;;;;;;;41.22;27.48;;;10.50;99.90;11.10;94244.00;;;;7390841;19;20125;-77
2022/04/14 03:25:49;;;;;;;38.87;28.30;;;10.50;99.90;10.90;94241.00;;;;7387524;19;20151;-77
2022/04/14 03:28:16;;;;;;;41.07;29.60;;;10.50;99.90;11.00;94228.00;;;;7390476;19;20133;-76
2022/04/14 03:30:43;;;;;;;45.20;30.90;;;10.50;99.90;10.90;94240.00;;;;7391132;19;20141;-77
2022/04/14 03:33:18;;;;;;;42.75;29.25;;;10.50;1.00;11.00;94230.00;;;;7390911;19;20200;-77
2022/04/14 03:35:46;;;;;;;43.67;30.33;;;10.50;1.00;10.90;94239.00;;;;7390305;19;20216;-77
2022/04/14 03:38:13;;;;;;;43.70;29.03;;;10.50;1.00;10.90;94239.00;;;;7390584;19;20806;-77
2022/04/14 03:41:05;;;;;;;47.53;31.10;;;10.40;1.00;10.80;94256.00;;;;7389654;19;20129;-76
2022/04/14 03:43:34;;;;;;;47.70;32.90;;;10.40;1.00;10.70;94243.00;;;;7391007;19;20604;-76
2022/04/14 03:46:08;;;;;;;47.90;30.73;;;10.30;1.00;10.70;94247.00;;;;7390261;19;20138;-76
2022/04/14 03:48:36;;;;;;;46.27;32.67;;;10.30;1.00;10.70;94243.00;;;;7391518;19;20117;-76
2022/04/14 03:51:03;;;;;;;53.40;32.40;;;10.30;1.00;10.70;94226.00;;;;7390842;19;20778;-76
2022/04/14 03:53:36;;;;;;;48.00;30.60;;;10.20;1.00;10.70;94242.00;;;;7390601;19;20125;-76
2022/04/14 03:56:04;;;;;;;46.77;31.30;;;10.20;7.50;10.70;94214.00;;;;7391431;19;20480;-76
2022/04/14 03:58:31;;;;;;;49.03;32.50;;;10.20;83.20;10.70;94234.00;;;;7391188;19;20465;-76
2022/04/14 04:01:05;;;;;;;47.13;33.47;;;10.10;99.90;10.60;94227.00;;;;7388155;19;20500;-77
2022/04/14 04:03:32;;;;;;;51.60;31.67;;;10.10;99.90;10.60;94230.00;;;;7388893;19;20127;-76
2022/04/14 04:05:59;;;;;;;49.77;32.23;;;10.00;99.90;10.50;94231.00;;;;7390662;19;20656;-76
2022/04/14 04:08:33;;;;;;;49.00;33.83;;;10.00;99.90;10.40;94235.00;;;;7391436;19;20488;-76
2022/04/14 04:11:00;;;;;;;49.27;32.33;;;10.00;99.90;10.40;94236.00;;;;7397304;19;20600;-76
2022/04/14 04:13:27;;;;;;;48.10;32.97;;;10.00;99.90;10.50;94234.00;;;;7398821;19;20117;-76
2022/04/14 04:16:07;;;;;;;49.50;33.17;;;9.90;1.00;10.40;94227.00;;;;7398378;19;20133;-77
2022/04/14 04:18:41;;;;;;;48.87;33.97;;;9.90;1.00;10.30;94215.00;;;;7396936;19;20144;-77
2022/04/14 04:21:14;;;;;;;59.10;33.63;;;9.80;1.00;10.30;94236.00;;;;7393567;19;20121;-77
2022/04/14 04:23:42;;;;;;;51.23;35.13;;;9.80;1.00;10.30;94229.00;;;;7397622;19;20129;-76
2022/04/14 04:26:09;;;;;;;47.47;33.73;;;9.70;1.00;10.30;94220.00;;;;7398608;19;20125;-76
2022/04/14 04:28:49;;;;;;;53.70;34.57;;;9.70;1.00;10.20;94226.00;;;;7397249;19;20125;-77
2022/04/14 04:31:16;;;;;;;48.33;34.23;;;9.70;1.00;10.20;94227.00;;;;7395979;19;20129;-77
2022/04/14 04:33:51;;;;;;;52.30;34.73;;;9.60;1.00;10.20;94246.00;;;;7397506;19;20204;-76
2022/04/14 04:36:19;;;;;;;53.50;35.30;;;;;10.20;94254.00;;;;7396337;19;20610;-75
2022/04/14 04:38:46;;;;;;;54.93;35.70;;;9.60;1.00;10.10;94248.00;;;;7397900;19;20445;-75
2022/04/14 04:41:19;;;;;;;52.73;36.53;;;9.60;1.00;10.10;94229.00;;;;7393580;19;20140;-76
2022/04/14 04:43:46;;;;;;;55.57;34.23;;;9.60;1.00;10.20;94256.00;;;;7395967;19;20141;-77
2022/04/14 04:46:15;;;;;;;48.33;34.80;;;9.60;1.00;10.10;94262.00;;;;7395224;19;20141;-77
2022/04/14 04:48:49;;;;;;;51.37;35.27;;;9.60;1.00;10.10;94259.00;;;;7395969;19;20133;-76
2022/04/14 04:51:17;;;;;;;50.70;35.13;;;9.60;1.00;10.00;94260.00;;;;7399019;19;20157;-74
2022/04/14 04:53:45;;;;;;;52.90;34.80;;;9.50;12.30;10.10;94255.00;;;;7397795;19;20592;-75
2022/04/14 04:56:19;;;;;;;52.83;35.63;;;9.60;46.60;10.10;94252.00;;;;7398073;19;20145;-75
2022/04/14 04:58:46;;;;;;;57.27;35.47;;;9.60;63.70;10.10;94265.00;;;;7402040;19;20149;-75
2022/04/14 05:01:14;;;;;;;56.80;32.73;;;9.60;56.10;10.10;94260.00;;;;7394993;19;20129;-75
2022/04/14 05:03:48;;;;;;;53.60;33.53;;;9.60;8.10;10.20;94258.00;;;;7398740;19;20136;-75
2022/04/14 05:06:15;;;;;;;58.03;34.43;;;9.60;1.00;10.40;94246.00;;;;7397473;19;20154;-75
2022/04/14 05:08:43;;;;;;;52.60;32.83;;;9.60;1.00;10.30;94250.00;;;;7396896;19;20588;-75
2022/04/14 05:11:17;;;;;;;52.27;33.03;;;9.70;1.00;10.40;94255.00;;;;7397721;19;20506;-75
2022/04/14 05:13:44;;;;;;;44.13;30.87;;;9.70;1.00;10.40;94258.00;;;;7398211;19;20172;-75
2022/04/14 05:16:12;;;;;;;48.85;31.80;;;9.70;1.00;10.40;94249.00;;;;7398739;19;20141;-75
2022/04/14 05:18:53;;;;;;;40.67;29.83;;;9.80;1.00;10.50;94275.00;;;;7401033;19;20139;-75
2022/04/14 05:21:20;;;;;;;39.40;28.08;;;9.80;1.00;10.60;94226.00;;;;7397410;19;20125;-75
2022/04/14 05:23:57;;;;;;;43.20;28.85;;;9.90;1.00;10.60;94277.00;;;;7399811;19;20143;-76
2022/04/14 05:26:24;;;;;;;38.70;27.33;;;10.00;1.00;10.60;94248.00;;;;7399465;19;20611;-75
2022/04/14 05:28:52;;;;;;;41.77;26.93;;;10.10;99.90;10.70;94290.00;;;;7400429;19;20847;-75
2022/04/14 05:31:26;;;;;;;40.63;25.83;;;10.10;99.90;10.70;94259.00;;;;7397551;19;20128;-76
2022/04/14 05:33:54;;;;;;;43.53;26.45;;;10.20;99.90;10.70;94284.00;;;;7397927;19;20169;-76
2022/04/14 05:36:21;;;;;;;34.00;26.75;;;10.10;99.90;10.70;94264.00;;;;7399234;19;20627;-75
2022/04/14 05:38:55;;;;;;;33.97;25.80;;;10.20;99.90;10.70;94249.00;;;;7398508;19;20157;-76
2022/04/14 05:41:22;;;;;;;35.43;25.00;;;10.20;99.90;10.80;94258.00;;;;7394417;19;20486;-76
2022/04/14 05:43:50;;;;;;;34.50;24.15;;;10.30;99.90;10.90;94267.00;;;;7398965;19;20133;-75
2022/04/14 05:46:25;;;;;;;33.57;24.27;;;10.30;42.40;11.00;94255.00;;;;7397131;19;20215;-76
2022/04/14 05:48:53;;;;;;;35.78;24.70;;;10.30;19.60;11.00;94284.00;;;;7399170;19;20203;-75
2022/04/14 05:51:21;;;;;;;33.95;24.33;;;10.40;1.00;10.90;94294.00;;;;7396222;19;20132;-76
2022/04/14 05:53:56;;;;;;;32.57;24.03;;;10.40;1.00;11.10;94275.00;;;;7396183;19;20145;-75
2022/04/14 05:56:23;;;;;;;32.20;23.60;;;10.40;1.00;11.20;94284.00;;;;7396221;19;20592;-76
2022/04/14 05:58:53;;;;;;;34.92;23.83;;;10.50;1.00;11.40;94280.00;;;;7399263;19;20133;-76
2022/04/14 06:01:27;;;;;;;37.60;26.67;;;10.60;1.00;11.60;94284.00;;;;7395480;19;20135;-76
2022/04/14 06:03:55;;;;;;;34.97;23.73;;;10.80;1.00;11.80;94284.00;;;;7396683;19;20133;-76
2022/04/14 06:06:22;;;;;;;32.70;23.52;;;10.90;1.00;12.00;94271.00;;;;7396771;19;20141;-76
2022/04/14 06:08:56;;;;;;;31.35;23.98;;;11.10;99.90;12.00;94275.00;;;;7396416;19;20907;-75
2022/04/14 06:11:23;;;;;;;33.60;21.83;;;11.20;99.90;12.10;94307.00;;;;7397418;19;20483;-76
2022/04/14 06:13:51;;;;;;;30.77;22.58;;;11.30;99.90;12.40;94283.00;;;;7398331;19;20584;-76
2022/04/14 06:16:38;;;;;;;32.25;23.08;;;11.60;1.00;12.30;94291.00;;;;7395984;19;20132;-76
2022/04/14 06:19:12;;;;;;;32.08;21.92;;;11.80;1.00;12.60;94310.00;;;;7397897;19;20133;-76
2022/04/14 06:21:46;;;;;;;29.13;22.60;;;11.80;1.00;12.50;94309.00;;;;7393869;19;20612;-76
2022/04/14 06:24:14;;;;;;;31.33;21.00;;;11.90;1.00;12.40;94301.00;;;;7397052;19;20147;-76
2022/04/14 06:26:42;;;;;;;30.80;21.35;;;11.90;99.90;12.50;94312.00;;;;7397214;19;20121;-76
2022/04/14 06:29:16;;;;;;;37.38;22.83;;;12.00;99.90;12.40;94306.00;;;;7397238;19;20128;-76
2022/04/14 06:31:43;;;;;;;42.67;24.67;;;12.00;99.90;12.60;94310.00;;;;7394646;19;20496;-76
2022/04/14 06:34:11;;;;;;;32.80;23.55;;;12.10;99.90;13.10;94314.00;;;;7395400;19;20151;-76
2022/04/14 06:36:45;;;;;;;36.47;23.33;;;12.10;99.90;13.20;94298.00;;;;7396703;19;20133;-76
2022/04/14 06:39:12;;;;;;;29.98;22.05;;;12.30;99.90;12.90;94279.00;;;;7395484;19;20133;-76
2022/04/14 06:41:40;;;;;;;35.08;21.98;;;12.40;50.50;12.90;94300.00;;;;7392998;19;20157;-77
2022/04/14 06:44:14;;;;;;;30.45;22.42;;;12.40;50.90;12.60;94290.00;;;;7395270;19;20155;-76
2022/04/14 06:46:42;;;;;;;31.13;22.63;;;12.20;50.50;12.80;94300.00;;;;7397252;19;20145;-76
2022/04/14 06:49:09;;;;;;;31.48;23.48;;;12.10;99.90;13.20;94294.00;;;;7397018;19;20125;-77
2022/04/14 06:51:43;;;;;;;32.40;22.63;;;12.20;99.90;13.50;94311.00;;;;7398040;19;20173;-76
2022/04/14 06:54:11;;;;;;;35.90;23.17;;;12.50;50.90;14.00;94293.00;;;;7394919;19;20147;-76
2022/04/14 06:56:38;;;;;;;30.38;21.42;;;12.60;50.60;14.10;94293.00;;;;7395770;19;20507;-77
2022/04/14 06:59:12;;;;;;;27.75;20.98;;;12.70;1.00;13.50;94293.00;;;;7395153;19;20135;-77
2022/04/14 07:01:39;;;;;;;30.38;20.85;;;12.80;1.00;13.30;94295.00;;;;7393012;19;20516;-76
2022/04/14 07:04:07;;;;;;;29.00;21.85;;;12.90;1.00;13.70;94302.00;;;;7393907;19;20212;-77
2022/04/14 07:06:41;;;;;;;30.15;21.10;;;13.00;1.00;13.50;94309.00;;;;7400181;19;20184;-76
2022/04/14 07:09:10;;;;;;;31.50;21.73;;;12.90;1.00;13.60;94304.00;;;;7395386;19;20493;-76
2022/04/14 07:11:37;;;;;;;27.48;20.73;;;12.90;1.00;14.10;94321.00;;;;7397313;19;20129;-76
2022/04/14 07:14:36;;;;;;;31.88;21.95;;;13.10;1.00;14.40;94315.00;;;;7391487;19;20608;-76
2022/04/14 07:17:20;;;;;;;31.35;22.77;;;13.20;1.00;14.50;94318.00;;;;7392182;19;20529;-75
2022/04/14 07:19:54;;;;;;;30.05;22.15;;;13.30;99.90;14.40;94315.00;;;;7393013;19;20137;-76
2022/04/14 07:22:22;;;;;;;30.17;23.45;;;13.30;99.90;14.70;94304.00;;;;7393353;19;20611;-76
2022/04/14 07:24:50;;;;;;;30.80;23.00;;;13.30;99.90;14.20;94302.00;;;;7392441;19;20136;-76
2022/04/14 07:27:24;;;;;;;31.73;23.27;;;13.30;99.90;14.20;94316.00;;;;7389830;19;20159;-76
2022/04/14 07:29:52;;;;;;;33.15;22.35;;;13.30;99.90;14.50;94331.00;;;;7392925;19;20137;-76
2022/04/14 07:32:20;;;;;;;31.50;23.83;;;13.40;99.90;14.70;94326.00;;;;7393263;19;20622;-76
2022/04/14 07:34:54;;;;;;;33.45;23.20;;;13.50;99.90;14.70;94310.00;;;;7393539;19;20156;-76
2022/04/14 07:37:22;;;;;;;28.38;23.23;;;13.60;99.90;14.90;94320.00;;;;7390088;19;20155;-76
2022/04/14 07:39:50;;;;;;;33.25;22.08;;;13.80;99.90;14.60;94298.00;;;;7393762;19;20121;-76
2022/04/14 07:42:32;;;;;;;27.08;22.60;;;13.80;1.00;15.00;94329.00;;;;7395655;19;20145;-77
2022/04/14 07:45:00;;;;;;;25.88;21.40;;;13.80;99.90;15.10;94325.00;;;;7391500;19;20471;-76
2022/04/14 07:47:45;;;;;;;25.40;21.40;;;13.90;8.60;14.90;94324.00;;;;7393043;19;20212;-76
2022/04/14 07:50:17;;;;;;;27.70;21.70;;;13.90;30.10;15.10;94326.00;;;;7393352;19;20147;-75
2022/04/14 07:52:56;;;;;;;30.33;21.63;;;14.10;1.00;16.00;94328.00;;;;7393594;19;20150;-76
2022/04/14 07:55:29;;;;;;;23.70;19.13;;;14.30;99.90;16.60;94323.00;;;;7391837;19;20153;-77
2022/04/14 07:58:07;;;;;;;23.73;19.42;;;14.70;1.00;16.30;94331.00;;;;7392438;19;20124;-76
2022/04/14 08:00:40;;;;;;;26.27;18.85;;;15.10;99.90;16.50;94328.00;;;;7391494;19;20129;-75
2022/04/14 08:03:14;;;;;;;22.65;16.80;;;15.40;99.90;16.70;94313.00;;;;7393261;19;20212;-76
2022/04/14 08:05:44;;;;;;;22.27;17.60;;;15.90;99.90;17.30;94315.00;;;;7392818;19;20175;-76
2022/04/14 08:08:18;;;;;;;27.00;17.35;;;16.00;99.90;17.00;94339.00;;;;7392071;19;20141;-76
2022/04/14 08:10:52;;;;;;;20.10;16.10;;;16.20;99.90;17.70;94328.00;;;;7389975;19;20168;-76
2022/04/14 08:13:20;;;;;;;22.23;16.88;;;16.40;99.90;17.40;94315.00;;;;7391829;19;20631;-76
2022/04/14 08:15:49;;;;;;;22.40;16.05;;;16.40;99.90;17.40;94344.00;;;;7392876;19;20209;-76
2022/04/14 08:18:30;;;;;;;21.02;15.95;;;16.40;95.10;18.00;94321.00;;;;7389910;19;20160;-76
2022/04/14 08:20:59;;;;;;;24.83;15.63;;;16.40;99.90;19.10;94342.00;;;;7389131;19;20158;-76
2022/04/14 08:23:38;;;;;;;22.70;16.10;;;16.60;99.90;18.60;94346.00;;;;7390011;19;20446;-77
2022/04/14 08:26:08;;;;;;;21.00;14.88;;;16.90;31.10;19.60;94347.00;;;;7389588;19;20121;-77
2022/04/14 08:28:46;;;;;;;27.80;14.32;;;17.20;1.00;20.20;94335.00;;;;7390321;19;20140;-77
2022/04/14 08:31:15;;;;;;;16.23;13.00;;;17.70;1.00;20.60;94315.00;;;;7389729;19;20141;-78
2022/04/14 08:33:50;;;;;;;21.48;13.52;;;17.70;1.00;20.20;94324.00;;;;7390229;19;20584;-78
2022/04/14 08:36:20;;;;;;;20.27;14.27;;;18.10;1.00;20.40;94326.00;;;;7388925;19;20208;-78
2022/04/14 08:38:50;;;;;;;16.95;13.27;;;18.40;1.00;20.50;94345.00;;;;7389381;19;20591;-78
2022/04/14 08:41:32;;;;;;;20.65;12.55;;;18.40;1.00;19.90;94348.00;;;;7388164;19;20133;-77
2022/04/14 08:44:02;;;;;;;22.15;13.63;;;18.50;1.00;19.90;94344.00;;;;7390226;19;20587;-76
2022/04/14 08:46:41;;;;;;;20.40;14.65;;;18.60;1.00;19.70;94346.00;;;;7389544;19;20144;-77
2022/04/14 08:49:10;;;;;;;20.23;14.15;;;18.60;1.00;19.40;94356.00;;;;7389448;19;20156;-77
2022/04/14 08:51:46;;;;;;;18.67;13.32;;;18.60;1.00;20.30;94349.00;;;;7389284;19;20133;-77
2022/04/14 08:54:14;;;;;;;16.65;13.52;;;18.90;1.00;21.80;94348.00;;;;7389775;19;20492;-76
2022/04/14 08:56:42;;;;;;;21.00;12.32;;;19.00;1.00;22.00;94344.00;;;;7398003;19;20461;-77
2022/04/14 08:59:18;;;;;;;16.90;13.40;;;19.20;1.00;22.10;94337.00;;;;7397401;19;20491;-76
2022/04/14 09:01:47;;;;;;;16.08;13.38;;;18.90;1.00;21.60;94340.00;;;;7396713;19;20491;-76
2022/04/14 09:04:15;;;;;;;17.63;12.25;;;19.00;1.00;21.50;94366.00;;;;7396232;19;20466;-77
2022/04/14 09:06:49;;;;;;;16.15;11.75;;;19.30;1.00;22.80;94358.00;;;;7397480;19;20140;-77
2022/04/14 09:09:17;;;;;;;14.85;11.63;;;19.60;1.00;21.90;94370.00;;;;7395650;19;20136;-77
2022/04/14 09:11:45;;;;;;;17.35;12.13;;;20.00;1.00;22.20;94357.00;;;;7397894;19;20612;-77
2022/04/14 09:14:21;;;;;;;18.00;11.65;;;20.00;1.00;22.80;94359.00;;;;7396985;19;20140;-76
2022/04/14 09:17:04;;;;;;;17.10;11.77;;;20.30;1.00;22.30;94373.00;;;;7399784;19;20124;-77
2022/04/14 09:19:41;;;;;;;17.50;11.60;;;20.00;1.00;21.60;94372.00;;;;7400141;19;20519;-77
2022/04/14 09:22:14;;;;;;;17.15;11.32;;;20.30;1.00;22.40;94374.00;;;;7397525;19;20604;-77
2022/04/14 09:24:55;;;;;;;19.13;12.13;;;20.20;1.00;22.20;94349.00;;;;7397925;19;20135;-77
2022/04/14 09:27:39;;;;;;;15.68;10.55;;;20.30;1.00;23.30;94343.00;;;;7397197;19;20141;-78
2022/04/14 09:30:18;;;;;;;14.77;10.40;;;20.80;1.00;23.70;94345.00;;;;7396553;19;20133;-78
2022/04/14 09:32:46;;;;;;;19.08;11.10;;;21.20;99.90;23.90;94363.00;;;;7396350;19;20551;-78
2022/04/14 09:35:28;;;;;;;16.38;11.13;;;21.40;99.90;22.80;94374.00;;;;7396343;19;20138;-77
2022/04/14 09:38:07;;;;;;;14.88;11.25;;;21.50;99.90;23.30;94353.00;;;;7396426;19;20587;-77
2022/04/14 09:40:41;;;;;;;15.48;11.98;;;21.30;99.90;23.70;94358.00;;;;7397051;19;20529;-77
2022/04/14 09:43:09;;;;;;;12.13;9.88;;;20.80;99.90;22.60;94373.00;;;;7396725;19;20169;-77
2022/04/14 09:45:37;;;;;;;13.68;10.93;;;20.80;99.90;22.60;94363.00;;;;7396137;19;20133;-78
2022/04/14 09:48:12;;;;;;;16.45;12.18;;;21.10;99.90;23.10;94369.00;;;;7395566;19;20136;-78
2022/04/14 09:50:46;;;;;;;15.45;10.68;;;21.50;99.90;22.40;94383.00;;;;7397802;19;20659;-77
2022/04/14 09:53:20;;;;;;;14.55;11.32;;;21.40;99.90;23.10;94356.00;;;;7399126;19;20124;-77
2022/04/14 09:55:57;;;;;;;15.73;10.35;;;21.60;99.90;23.40;94351.00;;;;7395504;19;20125;-77
2022/04/14 09:58:31;;;;;;;15.57;10.23;;;21.10;99.90;23.60;94365.00;;;;7394591;19;20121;-77
2022/04/14 10:00:59;;;;;;;19.70;11.00;;;21.00;99.90;23.80;94368.00;;;;7394876;19;20304;-78
2022/04/14 10:03:30;;;;;;;19.08;11.50;;;21.00;1.00;23.70;94353.00;;;;7396320;19;20476;-78
2022/04/14 10:06:08;;;;;;;16.27;10.27;;;21.30;99.90;22.90;94380.00;;;;7394446;19;20132;-78
2022/04/14 10:08:50;;;;;;;15.27;10.23;;;21.60;99.90;22.60;94379.00;;;;7395645;19;20129;-78
2022/04/14 10:11:33;;;;;;;16.10;10.43;;;21.60;99.90;21.80;94378.00;;;;7396175;19;20136;-77
2022/04/14 10:14:13;;;;;;;16.88;10.90;;;21.90;99.90;22.00;94374.00;;;;7395065;19;20144;-78
2022/04/14 10:17:03;;;;;;;17.00;10.15;;;21.80;99.90;22.10;94373.00;;;;7394829;19;20509;-77
2022/04/14 10:19:37;;;;;;;13.77;10.27;;;21.90;99.90;23.10;94373.00;;;;7395247;19;20129;-78
2022/04/14 10:22:11;;;;;;;13.38;10.07;;;22.20;99.90;23.20;94374.00;;;;7393540;19;20196;-78
2022/04/14 10:24:39;;;;;;;14.20;10.55;;;22.30;99.90;22.40;94351.00;;;;7394583;19;20144;-77
2022/04/14 10:27:10;;;;;;;14.63;9.88;;;22.60;99.90;23.40;94355.00;;;;7394591;19;20167;-77
2022/04/14 10:29:47;;;;;;;14.90;11.27;;;22.40;99.90;24.00;94362.00;;;;7396470;19;20590;-77
2022/04/14 10:32:16;;;;;;;16.15;10.77;;;22.30;99.90;22.80;94363.00;;;;7395557;19;20145;-77
2022/04/14 10:34:55;;;;;;;15.75;9.38;;;22.40;99.90;22.70;94365.00;;;;7394358;19;20149;-77
2022/04/14 10:37:44;;;;;;;18.27;10.23;;;22.50;99.90;23.20;94370.00;;;;7393406;19;20204;-77
2022/04/14 10:40:18;;;;;;;17.95;11.43;;;22.60;99.90;23.90;94382.00;;;;7393521;19;20137;-77
2022/04/14 10:42:55;;;;;;;12.90;9.73;;;22.30;99.90;22.70;94372.00;;;;7395374;19;20149;-76
2022/04/14 10:45:46;;;;;;;14.80;9.43;;;21.90;99.90;23.70;94369.00;;;;7394894;19;20210;-78
2022/04/14 10:48:33;;;;;;;11.35;9.18;;;21.90;99.90;23.80;94380.00;;;;7394391;19;20125;-78
2022/04/14 10:51:28;;;;;;;15.55;11.15;;;22.00;99.90;22.70;94376.00;;;;7394584;19;20129;-77
2022/04/14 10:54:08;;;;;;;13.77;9.90;;;22.10;99.90;22.60;94376.00;;;;7395446;19;20137;-78
2022/04/14 10:56:44;;;;;;;14.73;11.10;;;22.40;99.90;23.40;94373.00;;;;7394260;19;20153;-78
2022/04/14 10:59:48;;;;;;;14.25;9.95;;;22.30;99.90;24.00;94370.00;;;;7393370;19;20129;-79
2022/04/14 11:02:22;;;;;;;17.70;10.75;;;22.20;99.90;24.40;94370.00;;;;7392710;19;20159;-76
2022/04/14 11:04:54;;;;;;;15.75;11.50;;;22.50;99.90;23.80;94372.00;;;;7392901;19;20508;-78